createdAt,value
2018-05-17T00:00:45.055Z,11.97
2018-05-17T00:01:45.040Z,11.97
2018-05-17T00:02:44.496Z,11.83
2018-05-17T00:03:45.010Z,11.96
2018-05-17T00:04:44.727Z,11.97
2018-05-17T00:05:44.725Z,11.96
2018-05-17T00:06:44.967Z,11.9
2018-05-17T00:07:44.943Z,11.96
2018-05-17T00:08:44.673Z,11.97
2018-05-17T00:09:44.650Z,11.93
2018-05-17T00:10:44.637Z,11.86
2018-05-17T00:11:44.624Z,11.86
2018-05-17T00:12:44.611Z,11.86
2018-05-17T00:13:44.853Z,11.85
2018-05-17T00:14:44.311Z,11.77
2018-05-17T00:15:44.761Z,11.74
2018-05-17T00:16:44.812Z,11.82
2018-05-17T00:17:44.534Z,11.67
2018-05-17T00:18:44.784Z,11.64
2018-05-17T00:19:44.234Z,11.67
2018-05-17T00:20:44.754Z,11.57
2018-05-17T00:21:44.469Z,11.67
2018-05-17T00:22:44.188Z,11.67
2018-05-17T00:23:44.778Z,11.62
2018-05-17T00:24:44.362Z,11.53
2018-05-17T00:25:44.411Z,11.52
2018-05-17T00:26:44.655Z,11.56
2018-05-17T00:27:44.643Z,11.57
2018-05-17T00:28:44.634Z,11.59
2018-05-17T00:29:44.088Z,11.57
2018-05-17T00:30:44.609Z,11.49
2018-05-17T00:31:44.315Z,11.52
2018-05-17T00:32:44.304Z,11.46
2018-05-17T00:33:44.558Z,11.57
2018-05-17T00:34:44.279Z,11.43
2018-05-17T00:35:44.754Z,11.43
2018-05-17T00:36:44.247Z,11.44
2018-05-17T00:37:44.224Z,11.44
2018-05-17T00:38:44.224Z,11.47
2018-05-17T00:39:44.474Z,11.44
2018-05-17T00:40:44.178Z,11.36
2018-05-17T00:41:44.166Z,11.41
2018-05-17T00:42:44.155Z,11.34
2018-05-17T00:43:44.404Z,11.34
2018-05-17T00:44:44.116Z,11.35
2018-05-17T00:45:44.098Z,11.36
2018-05-17T00:46:44.082Z,11.43
2018-05-17T00:47:44.075Z,11.47
2018-05-17T00:48:44.331Z,11.43
2018-05-17T00:49:44.335Z,11.35
2018-05-17T00:50:44.310Z,11.35
2018-05-17T00:51:44.014Z,11.35
2018-05-17T00:52:44.262Z,11.39
2018-05-17T00:53:44.244Z,11.34
2018-05-17T00:54:44.230Z,11.31
2018-05-17T00:55:43.950Z,11.41
2018-05-17T00:56:44.198Z,11.44
2018-05-17T00:57:43.918Z,11.35
2018-05-17T00:58:43.907Z,11.36
2018-05-17T00:59:44.158Z,11.36
2018-05-17T01:00:44.135Z,11.41
2018-05-17T01:01:43.591Z,11.43
2018-05-17T01:02:43.849Z,11.39
2018-05-17T01:03:43.908Z,11.31
2018-05-17T01:04:44.073Z,11.35
2018-05-17T01:05:43.796Z,11.31
2018-05-17T01:06:43.511Z,11.35
2018-05-17T01:07:43.765Z,11.35
2018-05-17T01:08:43.746Z,11.44
2018-05-17T01:09:43.735Z,11.34
2018-05-17T01:10:43.717Z,11.29
2018-05-17T01:11:43.436Z,11.34
2018-05-17T01:12:43.952Z,11.36
2018-05-17T01:13:43.666Z,11.38
2018-05-17T01:14:43.923Z,11.35
2018-05-17T01:15:43.379Z,11.43
2018-05-17T01:16:43.640Z,11.41
2018-05-17T01:17:43.608Z,11.36
2018-05-17T01:18:43.859Z,11.31
2018-05-17T01:19:43.844Z,11.36
2018-05-17T01:20:43.563Z,11.44
2018-05-17T01:21:43.545Z,11.35
2018-05-17T01:22:43.529Z,11.36
2018-05-17T01:23:43.518Z,11.32
2018-05-17T01:24:43.770Z,11.41
2018-05-17T01:25:43.752Z,11.38
2018-05-17T01:26:43.208Z,11.39
2018-05-17T01:27:43.716Z,11.35
2018-05-17T01:28:43.702Z,11.34
2018-05-17T01:29:43.424Z,11.35
2018-05-17T01:30:43.406Z,11.31
2018-05-17T01:31:43.126Z,11.41
2018-05-17T01:32:43.376Z,11.38
2018-05-17T01:33:43.362Z,11.34
2018-05-17T01:34:43.342Z,11.39
2018-05-17T01:35:43.328Z,11.41
2018-05-17T01:36:43.047Z,11.36
2018-05-17T01:37:43.302Z,11.43
2018-05-17T01:38:43.546Z,11.36
2018-05-17T01:39:43.532Z,11.36
2018-05-17T01:40:43.517Z,11.39
2018-05-17T01:41:43.235Z,11.44
2018-05-17T01:42:42.953Z,11.41
2018-05-17T01:43:42.939Z,11.31
2018-05-17T01:44:43.191Z,11.41
2018-05-17T01:45:43.183Z,11.35
2018-05-17T01:46:43.157Z,11.35
2018-05-17T01:47:43.427Z,11.36
2018-05-17T01:48:43.132Z,11.41
2018-05-17T01:49:43.377Z,11.32
2018-05-17T01:50:42.834Z,11.36
2018-05-17T01:51:43.078Z,11.38
2018-05-17T01:52:42.800Z,11.36
2018-05-17T01:53:43.047Z,11.34
2018-05-17T01:54:43.032Z,11.34
2018-05-17T01:55:42.759Z,11.29
2018-05-17T01:56:43.272Z,11.28
2018-05-17T01:57:42.984Z,11.27
2018-05-17T01:58:42.969Z,11.29
2018-05-17T01:59:42.959Z,11.29
2018-05-17T02:00:42.939Z,11.32
2018-05-17T02:01:42.663Z,11.2
2018-05-17T02:02:42.922Z,11.2
2018-05-17T02:03:42.892Z,11.19
2018-05-17T02:04:42.878Z,11.25
2018-05-17T02:05:42.868Z,11.2
2018-05-17T02:06:42.851Z,11.27
2018-05-17T02:07:42.837Z,11.27
2018-05-17T02:08:42.818Z,11.29
2018-05-17T02:09:42.807Z,11.27
2018-05-17T02:10:42.789Z,11.19
2018-05-17T02:11:43.041Z,11.19
2018-05-17T02:12:43.028Z,11.17
2018-05-17T02:13:42.737Z,11.19
2018-05-17T02:14:42.991Z,11.2
2018-05-17T02:15:43.173Z,11.13
2018-05-17T02:16:42.961Z,11.1
2018-05-17T02:17:42.939Z,11.13
2018-05-17T02:18:42.924Z,11.19
2018-05-17T02:19:42.910Z,11.19
2018-05-17T02:20:42.895Z,11.13
2018-05-17T02:21:42.887Z,11.13
2018-05-17T02:22:42.864Z,11.16
2018-05-17T02:23:42.845Z,11.13
2018-05-17T02:24:42.568Z,11.11
2018-05-17T02:25:42.554Z,11.1
2018-05-17T02:26:42.269Z,11.07
2018-05-17T02:27:42.789Z,11.03
2018-05-17T02:28:42.501Z,11.09
2018-05-17T02:29:42.492Z,11.11
2018-05-17T02:30:42.482Z,11.09
2018-05-17T02:31:42.196Z,11.14
2018-05-17T02:32:42.709Z,11.09
2018-05-17T02:33:42.439Z,11.1
2018-05-17T02:34:42.671Z,11.06
2018-05-17T02:35:42.393Z,11.11
2018-05-17T02:36:42.650Z,11.06
2018-05-17T02:37:42.374Z,11.02
2018-05-17T02:38:42.620Z,11.01
2018-05-17T02:39:42.602Z,10.98
2018-05-17T02:40:42.591Z,11.07
2018-05-17T02:41:42.297Z,10.98
2018-05-17T02:42:42.293Z,11.01
2018-05-17T02:43:42.541Z,11.01
2018-05-17T02:44:42.257Z,10.99
2018-05-17T02:45:42.507Z,10.96
2018-05-17T02:46:42.225Z,10.99
2018-05-17T02:47:42.207Z,10.96
2018-05-17T02:48:42.461Z,10.95
2018-05-17T02:49:42.176Z,10.95
2018-05-17T02:50:42.163Z,10.98
2018-05-17T02:51:42.408Z,10.96
2018-05-17T02:52:42.132Z,10.96
2018-05-17T02:53:42.117Z,10.96
2018-05-17T02:54:42.365Z,10.98
2018-05-17T02:55:42.091Z,10.96
2018-05-17T02:56:42.065Z,10.98
2018-05-17T02:57:42.055Z,10.99
2018-05-17T02:58:42.033Z,10.95
2018-05-17T02:59:42.020Z,10.96
2018-05-17T03:00:42.270Z,10.99
2018-05-17T03:01:41.722Z,10.94
2018-05-17T03:02:42.233Z,10.92
2018-05-17T03:03:42.219Z,10.94
2018-05-17T03:04:41.939Z,10.91
2018-05-17T03:05:41.921Z,10.98
2018-05-17T03:06:41.907Z,10.98
2018-05-17T03:07:42.182Z,10.96
2018-05-17T03:08:42.137Z,10.92
2018-05-17T03:09:41.597Z,10.95
2018-05-17T03:10:42.122Z,10.94
2018-05-17T03:11:41.558Z,10.95
2018-05-17T03:12:42.089Z,10.99
2018-05-17T03:13:42.064Z,10.94
2018-05-17T03:14:41.515Z,10.86
2018-05-17T03:15:41.767Z,10.91
2018-05-17T03:16:41.743Z,10.89
2018-05-17T03:17:41.996Z,10.96
2018-05-17T03:18:41.988Z,10.95
2018-05-17T03:19:41.967Z,10.86
2018-05-17T03:20:42.001Z,10.84
2018-05-17T03:21:41.663Z,10.94
2018-05-17T03:22:41.659Z,10.98
2018-05-17T03:23:41.373Z,10.92
2018-05-17T03:24:41.885Z,10.84
2018-05-17T03:25:41.871Z,10.96
2018-05-17T03:26:41.590Z,10.92
2018-05-17T03:27:41.572Z,10.88
2018-05-17T03:28:41.816Z,10.91
2018-05-17T03:29:41.802Z,10.95
2018-05-17T03:30:41.530Z,10.89
2018-05-17T03:31:41.782Z,10.84
2018-05-17T03:32:41.488Z,10.89
2018-05-17T03:33:41.743Z,10.81
2018-05-17T03:34:41.460Z,10.88
2018-05-17T03:35:41.447Z,10.88
2018-05-17T03:36:41.697Z,10.84
2018-05-17T03:37:41.685Z,10.86
2018-05-17T03:38:41.668Z,10.96
2018-05-17T03:39:41.390Z,10.89
2018-05-17T03:40:41.366Z,10.89
2018-05-17T03:41:41.347Z,10.98
2018-05-17T03:42:41.342Z,10.95
2018-05-17T03:43:41.589Z,11.01
2018-05-17T03:44:41.563Z,10.81
2018-05-17T03:45:41.277Z,10.96
2018-05-17T03:46:41.269Z,10.86
2018-05-17T03:47:41.520Z,10.86
2018-05-17T03:48:41.235Z,10.95
2018-05-17T03:49:40.953Z,10.94
2018-05-17T03:50:40.938Z,10.96
2018-05-17T03:51:41.189Z,10.95
2018-05-17T03:52:41.173Z,10.92
2018-05-17T03:53:41.429Z,10.94
2018-05-17T03:54:41.400Z,10.98
2018-05-17T03:55:41.389Z,10.94
2018-05-17T03:56:41.107Z,10.94
2018-05-17T03:57:41.361Z,10.89
2018-05-17T03:58:40.813Z,10.94
2018-05-17T03:59:40.798Z,10.98
2018-05-17T04:00:41.046Z,10.99
2018-05-17T04:01:41.030Z,11.01
2018-05-17T04:02:41.011Z,11.01
2018-05-17T04:03:40.997Z,10.99
2018-05-17T04:04:41.256Z,11.03
2018-05-17T04:05:40.700Z,11.01
2018-05-17T04:06:41.215Z,10.98
2018-05-17T04:07:40.671Z,11.01
2018-05-17T04:08:41.080Z,11.03
2018-05-17T04:09:41.159Z,10.96
2018-05-17T04:10:40.885Z,11.01
2018-05-17T04:11:41.129Z,10.98
2018-05-17T04:12:40.589Z,10.96
2018-05-17T04:13:41.102Z,10.94
2018-05-17T04:14:40.558Z,11.03
2018-05-17T04:15:40.949Z,10.99
2018-05-17T04:16:41.078Z,10.98
2018-05-17T04:17:40.775Z,10.96
2018-05-17T04:18:40.775Z,11.01
2018-05-17T04:19:40.740Z,10.94
2018-05-17T04:20:40.991Z,10.98
2018-05-17T04:21:40.984Z,11.03
2018-05-17T04:22:40.961Z,10.96
2018-05-17T04:23:40.949Z,10.96
2018-05-17T04:24:40.940Z,10.94
2018-05-17T04:25:40.384Z,11.01
2018-05-17T04:26:40.369Z,10.91
2018-05-17T04:27:40.620Z,11.02
2018-05-17T04:28:40.603Z,11.02
2018-05-17T04:29:40.582Z,10.99
2018-05-17T04:30:40.568Z,10.99
2018-05-17T04:31:40.814Z,11.01
2018-05-17T04:32:40.271Z,11.03
2018-05-17T04:33:40.794Z,11.06
2018-05-17T04:34:40.241Z,10.99
2018-05-17T04:35:40.225Z,11.02
2018-05-17T04:36:40.474Z,11.01
2018-05-17T04:37:40.456Z,10.99
2018-05-17T04:38:40.440Z,10.96
2018-05-17T04:39:40.434Z,10.94
2018-05-17T04:40:40.419Z,10.98
2018-05-17T04:41:40.130Z,10.98
2018-05-17T04:42:40.646Z,11.01
2018-05-17T04:43:40.359Z,11.01
2018-05-17T04:44:40.082Z,10.92
2018-05-17T04:45:40.606Z,10.99
2018-05-17T04:46:40.314Z,10.92
2018-05-17T04:47:40.568Z,10.95
2018-05-17T04:48:40.563Z,10.98
2018-05-17T04:49:40.001Z,10.96
2018-05-17T04:50:40.269Z,11.01
2018-05-17T04:51:39.974Z,11.01
2018-05-17T04:52:40.218Z,11.03
2018-05-17T04:53:40.207Z,11.02
2018-05-17T04:54:40.555Z,11.01
2018-05-17T04:55:40.174Z,10.99
2018-05-17T04:56:40.163Z,10.98
2018-05-17T04:57:40.148Z,10.98
2018-05-17T04:58:39.863Z,11.02
2018-05-17T04:59:39.846Z,11.07
2018-05-17T05:00:40.093Z,11.07
2018-05-17T05:01:40.072Z,11.1
2018-05-17T05:02:40.232Z,11.1
2018-05-17T05:03:40.041Z,11.02
2018-05-17T05:04:40.295Z,11.13
2018-05-17T05:05:40.017Z,11.07
2018-05-17T05:06:39.738Z,11.09
2018-05-17T05:07:40.257Z,11.1
2018-05-17T05:08:39.975Z,11.14
2018-05-17T05:09:39.958Z,11.03
2018-05-17T05:10:39.948Z,11.09
2018-05-17T05:11:39.921Z,11.13
2018-05-17T05:12:40.176Z,11.14
2018-05-17T05:13:39.895Z,11.09
2018-05-17T05:14:39.608Z,11.13
2018-05-17T05:15:39.597Z,11.2
2018-05-17T05:16:40.107Z,11.24
2018-05-17T05:17:40.092Z,11.24
2018-05-17T05:18:39.807Z,11.31
2018-05-17T05:19:39.793Z,11.25
2018-05-17T05:20:40.039Z,11.29
2018-05-17T05:21:39.776Z,11.29
2018-05-17T05:22:39.483Z,11.29
2018-05-17T05:23:40.003Z,11.36
2018-05-17T05:24:39.983Z,11.35
2018-05-17T05:25:39.441Z,11.29
2018-05-17T05:26:39.689Z,11.39
2018-05-17T05:27:39.405Z,11.31
2018-05-17T05:28:39.389Z,11.32
2018-05-17T05:29:39.646Z,11.32
2018-05-17T05:30:39.360Z,11.36
2018-05-17T05:31:39.672Z,11.41
2018-05-17T05:32:39.632Z,11.31
2018-05-17T05:33:39.577Z,11.36
2018-05-17T05:34:39.294Z,11.43
2018-05-17T05:35:39.282Z,11.38
2018-05-17T05:36:39.265Z,11.38
2018-05-17T05:37:39.711Z,11.41
2018-05-17T05:38:39.504Z,11.31
2018-05-17T05:39:39.751Z,11.31
2018-05-17T05:40:39.466Z,11.41
2018-05-17T05:41:39.199Z,11.34
2018-05-17T05:42:39.438Z,11.29
2018-05-17T05:43:39.422Z,11.36
2018-05-17T05:44:39.671Z,11.38
2018-05-17T05:45:39.677Z,11.36
2018-05-17T05:46:39.117Z,11.44
2018-05-17T05:47:39.372Z,11.49
2018-05-17T05:48:39.081Z,11.49
2018-05-17T05:49:39.549Z,11.57
2018-05-17T05:50:39.319Z,11.56
2018-05-17T05:51:39.299Z,11.59
2018-05-17T05:52:39.562Z,11.54
2018-05-17T05:53:39.274Z,11.56
2018-05-17T05:54:38.995Z,11.54
2018-05-17T05:55:39.507Z,11.57
2018-05-17T05:56:39.493Z,11.53
2018-05-17T05:57:39.476Z,11.59
2018-05-17T05:58:39.219Z,11.67
2018-05-17T05:59:39.195Z,11.64
2018-05-17T06:00:39.162Z,11.62
2018-05-17T06:01:39.164Z,11.52
2018-05-17T06:02:38.874Z,11.54
2018-05-17T06:03:38.862Z,11.62
2018-05-17T06:04:39.116Z,11.65
2018-05-17T06:05:39.098Z,11.67
2018-05-17T06:06:39.346Z,11.65
2018-05-17T06:07:39.325Z,11.82
2018-05-17T06:08:39.318Z,11.89
2018-05-17T06:09:39.037Z,11.85
2018-05-17T06:10:39.023Z,11.89
2018-05-17T06:11:39.281Z,11.93
2018-05-17T06:12:39.041Z,11.97
2018-05-17T06:13:38.978Z,11.93
2018-05-17T06:14:38.967Z,11.99
2018-05-17T06:15:39.209Z,11.94
2018-05-17T06:16:39.195Z,12.06
2018-05-17T06:17:39.184Z,12.06
2018-05-17T06:18:39.164Z,12.09
2018-05-17T06:19:38.619Z,12.06
2018-05-17T06:20:38.872Z,12.13
2018-05-17T06:21:38.593Z,12.08
2018-05-17T06:22:39.112Z,12.15
2018-05-17T06:23:38.561Z,12.19
2018-05-17T06:24:39.075Z,12.24
2018-05-17T06:25:38.796Z,12.23
2018-05-17T06:26:38.785Z,12.24
2018-05-17T06:27:38.505Z,12.29
2018-05-17T06:28:39.020Z,12.39
2018-05-17T06:29:38.738Z,12.41
2018-05-17T06:30:38.725Z,12.41
2018-05-17T06:31:38.451Z,12.3
2018-05-17T06:32:38.961Z,12.33
2018-05-17T06:33:38.951Z,12.33
2018-05-17T06:34:38.401Z,12.33
2018-05-17T06:35:38.395Z,12.31
2018-05-17T06:36:38.378Z,12.38
2018-05-17T06:37:38.646Z,12.38
2018-05-17T06:38:38.345Z,12.23
2018-05-17T06:39:38.869Z,12.26
2018-05-17T06:40:38.588Z,12.19
2018-05-17T06:41:38.588Z,12.21
2018-05-17T06:42:38.850Z,12.23
2018-05-17T06:43:38.275Z,12.29
2018-05-17T06:44:38.877Z,12.27
2018-05-17T06:45:38.781Z,12.26
2018-05-17T06:46:38.505Z,12.23
2018-05-17T06:47:38.223Z,12.19
2018-05-17T06:48:38.468Z,12.27
2018-05-17T06:49:38.712Z,12.21
2018-05-17T06:50:38.171Z,12.11
2018-05-17T06:51:38.693Z,12.21
2018-05-17T06:52:38.412Z,12.2
2018-05-17T06:53:38.133Z,12.21
2018-05-17T06:54:38.117Z,12.24
2018-05-17T06:55:38.638Z,12.19
2018-05-17T06:56:38.623Z,12.23
2018-05-17T06:57:38.603Z,12.23
2018-05-17T06:58:38.323Z,12.23
2018-05-17T06:59:38.056Z,12.26
2018-05-17T07:00:38.436Z,12.34
2018-05-17T07:01:38.018Z,12.38
2018-05-17T07:02:38.283Z,12.41
2018-05-17T07:03:38.254Z,12.29
2018-05-17T07:04:37.980Z,12.34
2018-05-17T07:05:37.965Z,12.44
2018-05-17T07:06:38.480Z,12.39
2018-05-17T07:07:38.470Z,12.34
2018-05-17T07:08:38.451Z,12.29
2018-05-17T07:09:38.434Z,12.33
2018-05-17T07:10:38.594Z,12.27
2018-05-17T07:11:37.879Z,12.24
2018-05-17T07:12:38.142Z,12.26
2018-05-17T07:13:37.852Z,12.24
2018-05-17T07:14:38.100Z,12.21
2018-05-17T07:15:37.821Z,12.23
2018-05-17T07:16:38.079Z,12.26
2018-05-17T07:17:38.326Z,12.29
2018-05-17T07:18:38.973Z,12.46
2018-05-17T07:19:38.029Z,12.41
2018-05-17T07:20:38.289Z,12.67
2018-05-17T07:21:38.005Z,12.64
2018-05-17T07:22:37.988Z,12.81
2018-05-17T07:23:37.979Z,12.82
2018-05-17T07:24:38.233Z,13.02
2018-05-17T07:25:38.220Z,13.2
2018-05-17T07:26:37.670Z,13.38
2018-05-17T07:27:37.918Z,13.71
2018-05-17T07:28:38.176Z,13.76
2018-05-17T07:29:37.888Z,13.84
2018-05-17T07:30:37.879Z,13.77
2018-05-17T07:31:37.871Z,13.73
2018-05-17T07:32:37.859Z,13.91
2018-05-17T07:33:37.852Z,14.02
2018-05-17T07:34:38.093Z,14.12
2018-05-17T07:35:38.094Z,13.98
2018-05-17T07:36:37.809Z,13.87
2018-05-17T07:37:37.803Z,14.37
2018-05-17T07:38:37.780Z,14.46
2018-05-17T07:39:38.031Z,14.75
2018-05-17T07:40:37.757Z,14.94
2018-05-17T07:41:37.743Z,14.67
2018-05-17T07:42:37.739Z,14.68
2018-05-17T07:43:37.721Z,15.27
2018-05-17T07:44:37.978Z,14.94
2018-05-17T07:45:37.693Z,15.31
2018-05-17T07:46:38.095Z,15.6
2018-05-17T07:47:37.674Z,16.18
2018-05-17T07:48:37.929Z,17.1
2018-05-17T07:49:37.921Z,17.87
2018-05-17T07:50:37.917Z,18.58
2018-05-17T07:51:37.632Z,19.25
2018-05-17T07:52:37.357Z,19.48
2018-05-17T07:53:37.890Z,19.23
2018-05-17T07:54:37.871Z,18.39
2018-05-17T07:55:37.714Z,17.53
2018-05-17T07:56:37.584Z,16.7
2018-05-17T07:57:37.849Z,16.03
2018-05-17T07:58:37.569Z,15.26
2018-05-17T07:59:37.293Z,14.72
2018-05-17T08:00:38.076Z,14.49
2018-05-17T08:01:37.541Z,14.39
2018-05-17T08:02:37.263Z,14.24
2018-05-17T08:03:37.254Z,14.07
2018-05-17T08:04:37.242Z,14.07
2018-05-17T08:05:37.502Z,14.04
2018-05-17T08:06:37.753Z,14.09
2018-05-17T08:07:37.483Z,14.13
2018-05-17T08:08:37.467Z,14.2
2018-05-17T08:09:37.197Z,14.02
2018-05-17T08:10:37.187Z,13.87
2018-05-17T08:11:37.440Z,14.71
2018-05-17T08:12:37.690Z,15.84
2018-05-17T08:13:37.153Z,16.73
2018-05-17T08:14:37.405Z,17.17
2018-05-17T08:15:37.128Z,17.76
2018-05-17T08:16:37.853Z,18.18
2018-05-17T08:17:37.642Z,18.79
2018-05-17T08:18:37.635Z,19.38
2018-05-17T08:19:37.627Z,19.79
2018-05-17T08:20:37.090Z,20.31
2018-05-17T08:21:37.606Z,20.87
2018-05-17T08:22:37.618Z,20.77
2018-05-17T08:23:37.335Z,21.42
2018-05-17T08:24:37.056Z,21.9
2018-05-17T08:25:37.050Z,22.07
2018-05-17T08:26:37.578Z,21.88
2018-05-17T08:27:37.311Z,22.06
2018-05-17T08:28:37.311Z,20.79
2018-05-17T08:29:37.299Z,19.78
2018-05-17T08:30:37.025Z,18.68
2018-05-17T08:31:37.021Z,17.84
2018-05-17T08:32:37.553Z,17.13
2018-05-17T08:33:37.007Z,16.65
2018-05-17T08:34:37.272Z,16.6
2018-05-17T08:35:37.531Z,16.42
2018-05-17T08:36:38.054Z,15.92
2018-05-17T08:37:37.258Z,15.75
2018-05-17T08:38:37.247Z,15.48
2018-05-17T08:39:37.510Z,15.26
2018-05-17T08:40:37.488Z,15.13
2018-05-17T08:41:37.483Z,15.24
2018-05-17T08:42:37.660Z,15.33
2018-05-17T08:43:37.199Z,15.45
2018-05-17T08:44:36.930Z,15.56
2018-05-17T08:45:36.965Z,15.48
2018-05-17T08:46:37.444Z,15.43
2018-05-17T08:47:36.898Z,15.38
2018-05-17T08:48:37.428Z,15.2
2018-05-17T08:49:37.410Z,15.12
2018-05-17T08:50:37.135Z,15.11
2018-05-17T08:51:37.393Z,15.02
2018-05-17T08:52:37.388Z,14.88
2018-05-17T08:53:36.847Z,14.72
2018-05-17T08:54:36.841Z,14.68
2018-05-17T08:55:37.364Z,14.69
2018-05-17T08:56:36.818Z,14.67
2018-05-17T08:57:37.068Z,14.67
2018-05-17T08:58:37.058Z,14.69
2018-05-17T08:59:37.338Z,14.81
2018-05-17T09:00:36.770Z,14.8
2018-05-17T09:01:37.023Z,14.72
2018-05-17T09:02:37.286Z,14.52
2018-05-17T09:03:37.008Z,14.5
2018-05-17T09:04:37.265Z,14.57
2018-05-17T09:05:37.242Z,14.74
2018-05-17T09:06:37.242Z,14.72
2018-05-17T09:07:36.960Z,14.88
2018-05-17T09:08:37.228Z,14.88
2018-05-17T09:09:36.675Z,15.02
2018-05-17T09:10:36.927Z,14.99
2018-05-17T09:11:36.652Z,14.98
2018-05-17T09:12:37.165Z,14.94
2018-05-17T09:13:37.461Z,14.84
2018-05-17T09:14:36.622Z,14.9
2018-05-17T09:15:36.603Z,14.83
2018-05-17T09:16:37.130Z,14.75
2018-05-17T09:17:37.105Z,14.87
2018-05-17T09:18:36.836Z,14.94
2018-05-17T09:19:37.091Z,15.02
2018-05-17T09:20:37.431Z,15.02
2018-05-17T09:21:37.076Z,15.15
2018-05-17T09:22:37.057Z,15.28
2018-05-17T09:23:37.051Z,15.38
2018-05-17T09:24:36.783Z,15.3
2018-05-17T09:25:36.496Z,15.41
2018-05-17T09:26:36.744Z,15.51
2018-05-17T09:27:36.998Z,15.57
2018-05-17T09:28:36.725Z,15.57
2018-05-17T09:29:36.976Z,15.51
2018-05-17T09:30:36.965Z,15.49
2018-05-17T09:31:36.957Z,15.41
2018-05-17T09:32:36.412Z,15.33
2018-05-17T09:33:36.683Z,15.2
2018-05-17T09:34:36.915Z,15.23
2018-05-17T09:35:36.665Z,15.17
2018-05-17T09:36:36.630Z,15.21
2018-05-17T09:37:36.351Z,15.03
2018-05-17T09:38:36.342Z,15.06
2018-05-17T09:39:36.340Z,14.94
2018-05-17T09:40:36.594Z,15.02
2018-05-17T09:41:36.574Z,15.01
2018-05-17T09:42:36.830Z,15.11
2018-05-17T09:43:36.822Z,15.21
2018-05-17T09:44:36.547Z,15.13
2018-05-17T09:45:36.526Z,15.26
2018-05-17T09:46:36.792Z,15.28
2018-05-17T09:47:36.578Z,15.42
2018-05-17T09:48:36.502Z,15.48
2018-05-17T09:49:36.746Z,15.39
2018-05-17T09:50:36.733Z,15.54
2018-05-17T09:51:36.469Z,15.67
2018-05-17T09:52:36.447Z,15.6
2018-05-17T09:53:36.717Z,15.49
2018-05-17T09:54:36.433Z,15.54
2018-05-17T09:55:36.686Z,15.52
2018-05-17T09:56:36.138Z,15.59
2018-05-17T09:57:36.405Z,15.51
2018-05-17T09:58:36.661Z,15.63
2018-05-17T09:59:36.376Z,15.54
2018-05-17T10:00:36.633Z,15.56
2018-05-17T10:01:36.627Z,15.49
2018-05-17T10:02:36.615Z,15.49
2018-05-17T10:03:36.328Z,15.52
2018-05-17T10:04:36.318Z,15.46
2018-05-17T10:05:36.312Z,15.52
2018-05-17T10:06:36.032Z,15.56
2018-05-17T10:07:36.285Z,15.46
2018-05-17T10:08:36.019Z,15.52
2018-05-17T10:09:36.272Z,15.48
2018-05-17T10:10:36.249Z,15.43
2018-05-17T10:11:35.984Z,15.3
2018-05-17T10:12:36.232Z,15.41
2018-05-17T10:13:35.962Z,15.45
2018-05-17T10:14:36.691Z,15.52
2018-05-17T10:15:36.372Z,15.46
2018-05-17T10:16:36.659Z,15.54
2018-05-17T10:17:36.179Z,15.59
2018-05-17T10:18:35.905Z,15.93
2018-05-17T10:19:36.423Z,16.25
2018-05-17T10:20:36.415Z,16.52
2018-05-17T10:21:36.412Z,16.62
2018-05-17T10:22:35.864Z,16.96
2018-05-17T10:23:36.129Z,17.28
2018-05-17T10:24:36.118Z,17.47
2018-05-17T10:25:35.853Z,17.35
2018-05-17T10:26:36.108Z,17.55
2018-05-17T10:27:36.113Z,18.06
2018-05-17T10:28:36.364Z,18.61
2018-05-17T10:29:36.187Z,19.15
2018-05-17T10:30:36.081Z,19.54
2018-05-17T10:31:36.084Z,19.78
2018-05-17T10:32:36.347Z,19.98
2018-05-17T10:33:35.814Z,20.28
2018-05-17T10:34:36.143Z,20.42
2018-05-17T10:35:36.336Z,20.68
2018-05-17T10:36:35.801Z,20.71
2018-05-17T10:37:36.331Z,20.96
2018-05-17T10:38:36.327Z,20.74
2018-05-17T10:39:36.322Z,20.74
2018-05-17T10:40:35.795Z,20.5
2018-05-17T10:41:36.323Z,20.76
2018-05-17T10:42:36.061Z,21.29
2018-05-17T10:43:36.057Z,21.56
2018-05-17T10:44:35.794Z,21.6
2018-05-17T10:45:36.057Z,22.06
2018-05-17T10:46:36.324Z,22.65
2018-05-17T10:47:36.327Z,22.34
2018-05-17T10:48:36.318Z,22.28
2018-05-17T10:49:36.063Z,22.28
2018-05-17T10:50:36.058Z,22.43
2018-05-17T10:51:36.064Z,22.23
2018-05-17T10:52:36.331Z,22.31
2018-05-17T10:53:36.071Z,22.6
2018-05-17T10:54:36.169Z,22.43
2018-05-17T10:55:35.808Z,22.6
2018-05-17T10:56:36.340Z,22.86
2018-05-17T10:57:36.473Z,22.64
2018-05-17T10:58:36.081Z,22.72
2018-05-17T10:59:35.813Z,22.86
2018-05-17T11:00:36.077Z,22.64
2018-05-17T11:01:36.080Z,22.75
2018-05-17T11:02:36.683Z,23.05
2018-05-17T11:03:36.082Z,23.32
2018-05-17T11:04:36.087Z,23.42
2018-05-17T11:05:36.103Z,23.2
2018-05-17T11:06:36.090Z,23.27
2018-05-17T11:07:35.832Z,23.5
2018-05-17T11:08:36.368Z,23.65
2018-05-17T11:09:36.110Z,23.43
2018-05-17T11:10:35.852Z,23.58
2018-05-17T11:11:36.111Z,23.39
2018-05-17T11:12:36.380Z,23.34
2018-05-17T11:13:36.155Z,22.92
2018-05-17T11:14:36.125Z,22.87
2018-05-17T11:15:36.384Z,23.27
2018-05-17T11:16:36.122Z,23.64
2018-05-17T11:17:36.133Z,23.61
2018-05-17T11:18:36.134Z,23.38
2018-05-17T11:19:36.144Z,23.34
2018-05-17T11:20:36.135Z,23.57
2018-05-17T11:21:36.410Z,23.76
2018-05-17T11:22:36.148Z,23.79
2018-05-17T11:23:35.889Z,23.8
2018-05-17T11:24:36.150Z,23.64
2018-05-17T11:25:36.473Z,23.53
2018-05-17T11:26:36.153Z,23.62
2018-05-17T11:27:36.445Z,23.89
2018-05-17T11:28:35.897Z,24.24
2018-05-17T11:29:36.433Z,24.34
2018-05-17T11:30:36.436Z,24.31
2018-05-17T11:31:36.438Z,24.19
2018-05-17T11:32:36.176Z,23.62
2018-05-17T11:33:36.186Z,23.45
2018-05-17T11:34:36.191Z,23.14
2018-05-17T11:35:36.456Z,22.84
2018-05-17T11:36:36.191Z,22.72
2018-05-17T11:37:36.460Z,23.2
2018-05-17T11:38:36.645Z,23.57
2018-05-17T11:39:36.473Z,23.64
2018-05-17T11:40:36.213Z,24.1
2018-05-17T11:41:36.476Z,24.29
2018-05-17T11:42:36.214Z,24.31
2018-05-17T11:43:36.481Z,24.54
2018-05-17T11:44:36.230Z,24.63
2018-05-17T11:45:36.233Z,24.44
2018-05-17T11:46:36.230Z,24.44
2018-05-17T11:47:36.509Z,24.64
2018-05-17T11:48:36.240Z,24.61
2018-05-17T11:49:36.241Z,24.88
2018-05-17T11:50:36.251Z,24.83
2018-05-17T11:51:35.984Z,24.9
2018-05-17T11:52:36.256Z,24.94
2018-05-17T11:53:35.993Z,24.88
2018-05-17T11:54:36.272Z,25.2
2018-05-17T11:55:36.277Z,25.2
2018-05-17T11:56:36.277Z,25.49
2018-05-17T11:57:36.276Z,25.69
2018-05-17T11:58:36.288Z,25.42
2018-05-17T11:59:36.551Z,24.92
2018-05-17T12:00:36.291Z,24.63
2018-05-17T12:01:36.866Z,24.47
2018-05-17T12:02:36.700Z,24.45
2018-05-17T12:03:36.572Z,24.42
2018-05-17T12:04:36.586Z,24.64
2018-05-17T12:05:36.574Z,24.82
2018-05-17T12:06:36.315Z,25.06
2018-05-17T12:07:36.639Z,25.05
2018-05-17T12:08:36.590Z,25.35
2018-05-17T12:09:36.337Z,25.22
2018-05-17T12:10:36.334Z,24.94
2018-05-17T12:11:36.601Z,25.02
2018-05-17T12:12:36.080Z,24.77
2018-05-17T12:13:36.607Z,24.83
2018-05-17T12:14:36.086Z,24.79
2018-05-17T12:15:36.619Z,25
2018-05-17T12:16:36.836Z,25.38
2018-05-17T12:17:36.372Z,25.07
2018-05-17T12:18:36.365Z,25.07
2018-05-17T12:19:36.375Z,25.35
2018-05-17T12:20:36.376Z,25.32
2018-05-17T12:21:36.383Z,25.42
2018-05-17T12:22:36.648Z,25.74
2018-05-17T12:23:36.652Z,25.71
2018-05-17T12:24:36.657Z,25.47
2018-05-17T12:25:36.668Z,25.74
2018-05-17T12:26:36.407Z,25.28
2018-05-17T12:27:36.140Z,25.2
2018-05-17T12:28:36.414Z,25.01
2018-05-17T12:29:36.680Z,25.3
2018-05-17T12:30:36.684Z,25.43
2018-05-17T12:31:36.480Z,25.74
2018-05-17T12:32:36.431Z,25.34
2018-05-17T12:33:36.701Z,25.5
2018-05-17T12:34:36.441Z,25.61
2018-05-17T12:35:36.441Z,25.65
2018-05-17T12:36:36.454Z,25.69
2018-05-17T12:37:36.189Z,25.83
2018-05-17T12:38:36.455Z,25.91
2018-05-17T12:39:36.463Z,25.97
2018-05-17T12:40:36.471Z,26.24
2018-05-17T12:41:36.740Z,26.35
2018-05-17T12:42:36.220Z,26.59
2018-05-17T12:43:36.484Z,26.73
2018-05-17T12:44:36.489Z,26.61
2018-05-17T12:45:36.492Z,26.4
2018-05-17T12:46:36.507Z,26.35
2018-05-17T12:47:36.505Z,26.11
2018-05-17T12:48:36.776Z,25.8
2018-05-17T12:49:36.779Z,25.8
2018-05-17T12:50:36.780Z,25.89
2018-05-17T12:51:36.790Z,26.02
2018-05-17T12:52:36.799Z,26.09
2018-05-17T12:53:36.804Z,26.12
2018-05-17T12:54:36.542Z,25.94